sensor_id;sensor_type;location;lat;lon;timestamp;temperature;humidity
20996;DHT22;10656;52.200;21.052;2024-01-16T00:06:17;-1.20;96.20
20996;DHT22;10656;52.200;21.052;2024-01-16T00:31:32;-1.30;97.00
20996;DHT22;10656;52.200;21.052;2024-01-16T01:02:03;-1.30;98.20
20996;DHT22;10656;52.200;21.052;2024-01-16T01:22:18;-1.50;97.70
20996;DHT22;10656;52.200;21.052;2024-01-16T02:03:07;-2.00;99.90
20996;DHT22;10656;52.200;21.052;2024-01-16T02:07:27;-2.00;99.00
20996;DHT22;10656;52.200;21.052;2024-01-16T02:28:26;-2.10;90.70
20996;DHT22;10656;52.200;21.052;2024-01-16T02:53:38;-2.30;88.60
20996;DHT22;10656;52.200;21.052;2024-01-16T03:49:14;-3.60;95.60
20996;DHT22;10656;52.200;21.052;2024-01-16T04:15:06;-3.80;97.60
20996;DHT22;10656;52.200;21.052;2024-01-16T04:35:26;-3.60;92.40
20996;DHT22;10656;52.200;21.052;2024-01-16T04:55:44;-4.20;93.30
20996;DHT22;10656;52.200;21.052;2024-01-16T05:15:53;-4.60;97.60
20996;DHT22;10656;52.200;21.052;2024-01-16T05:46:24;-4.50;99.90
20996;DHT22;10656;52.200;21.052;2024-01-16T06:06:51;-4.70;99.90
20996;DHT22;10656;52.200;21.052;2024-01-16T06:11:09;-4.80;99.90
20996;DHT22;10656;52.200;21.052;2024-01-16T06:36:35;-4.30;98.40
20996;DHT22;10656;52.200;21.052;2024-01-16T06:43:48;-4.10;95.20
20996;DHT22;10656;52.200;21.052;2024-01-16T07:33:07;-3.60;90.90
20996;DHT22;10656;52.200;21.052;2024-01-16T07:58:30;-4.10;90.90
20996;DHT22;10656;52.200;21.052;2024-01-16T08:28:41;-3.80;88.00
20996;DHT22;10656;52.200;21.052;2024-01-16T08:59:02;-3.70;86.20
20996;DHT22;10656;52.200;21.052;2024-01-16T09:24:33;-3.60;84.70
20996;DHT22;10656;52.200;21.052;2024-01-16T09:44:34;-3.30;82.60
20996;DHT22;10656;52.200;21.052;2024-01-16T10:05:05;-3.10;81.40
20996;DHT22;10656;52.200;21.052;2024-01-16T10:35:30;-2.90;81.50
20996;DHT22;10656;52.200;21.052;2024-01-16T11:00:52;-2.40;81.80
20996;DHT22;10656;52.200;21.052;2024-01-16T11:21:24;-2.50;83.00
20996;DHT22;10656;52.200;21.052;2024-01-16T11:24:28;-2.60;82.50
20996;DHT22;10656;52.200;21.052;2024-01-16T11:47:03;-2.40;84.20
20996;DHT22;10656;52.200;21.052;2024-01-16T12:26:58;-2.00;84.30
20996;DHT22;10656;52.200;21.052;2024-01-16T13:02:37;-2.10;83.20
20996;DHT22;10656;52.200;21.052;2024-01-16T13:28:31;-2.20;83.40
20996;DHT22;10656;52.200;21.052;2024-01-16T13:53:59;-2.30;83.80
20996;DHT22;10656;52.200;21.052;2024-01-16T14:19:20;-2.90;85.10
20996;DHT22;10656;52.200;21.052;2024-01-16T14:54:53;-3.40;89.90
20996;DHT22;10656;52.200;21.052;2024-01-16T15:25:27;-4.10;91.40
20996;DHT22;10656;52.200;21.052;2024-01-16T15:29:49;-4.30;92.80
20996;DHT22;10656;52.200;21.052;2024-01-16T16:05:55;-4.00;91.70
20996;DHT22;10656;52.200;21.052;2024-01-16T16:31:18;-4.50;93.50
20996;DHT22;10656;52.200;21.052;2024-01-16T16:56:51;-4.40;92.80
20996;DHT22;10656;52.200;21.052;2024-01-16T17:21:47;-5.80;98.70
20996;DHT22;10656;52.200;21.052;2024-01-16T17:47:14;-7.00;99.90
20996;DHT22;10656;52.200;21.052;2024-01-16T18:12:51;-5.90;99.90
20996;DHT22;10656;52.200;21.052;2024-01-16T18:43:26;-6.20;99.90
20996;DHT22;10656;52.200;21.052;2024-01-16T20:29:27;-7.10;99.90
20996;DHT22;10656;52.200;21.052;2024-01-16T20:50:09;-6.30;99.90
20996;DHT22;10656;52.200;21.052;2024-01-16T21:36:00;-7.30;99.90
20996;DHT22;10656;52.200;21.052;2024-01-16T22:16:16;-7.80;99.90
